createdAt,value
2022-10-02T00:18:31.577Z,20.2
2022-10-02T00:48:31.557Z,20.2
2022-10-02T01:18:31.577Z,20.2
2022-10-02T01:48:31.564Z,20.1
2022-10-02T02:18:31.559Z,20.1
2022-10-02T02:48:31.604Z,20.1
2022-10-02T03:18:31.569Z,20.1
2022-10-02T03:48:31.552Z,20.1
2022-10-02T04:18:31.564Z,20.1
2022-10-02T04:48:31.595Z,20.1
2022-10-02T05:18:31.624Z,20.1
2022-10-02T05:48:31.580Z,20.0
2022-10-02T06:18:31.578Z,20.0
2022-10-02T06:48:31.588Z,20.0
2022-10-02T07:18:31.621Z,20.1
2022-10-02T07:48:31.650Z,20.1
2022-10-02T08:18:31.564Z,20.1
2022-10-02T08:48:31.637Z,20.1
2022-10-02T09:18:31.681Z,20.1
2022-10-02T09:48:31.624Z,20.1
2022-10-02T10:18:31.590Z,20.2
2022-10-02T10:48:31.632Z,20.2
2022-10-02T11:18:31.571Z,20.2
2022-10-02T11:48:31.598Z,20.2
2022-10-02T12:18:31.660Z,20.2
2022-10-02T12:48:31.597Z,20.2
2022-10-02T13:18:31.585Z,20.2
2022-10-02T13:48:31.570Z,20.2
2022-10-02T14:18:31.704Z,20.2
2022-10-02T14:48:31.593Z,20.6
2022-10-02T15:18:31.561Z,20.8
2022-10-02T15:48:31.638Z,20.8
2022-10-02T16:18:31.587Z,20.9
2022-10-02T16:48:31.598Z,20.9
2022-10-02T17:18:31.579Z,20.9
2022-10-02T17:48:31.671Z,20.9
2022-10-02T18:18:31.634Z,20.9
2022-10-02T18:48:31.700Z,21.0
2022-10-02T19:18:31.635Z,21.0
2022-10-02T19:48:31.564Z,20.9
2022-10-02T20:18:31.620Z,20.8
2022-10-02T20:48:31.588Z,20.8
2022-10-02T21:18:31.688Z,20.7
2022-10-02T21:48:31.720Z,20.6
2022-10-02T22:18:31.577Z,20.6
2022-10-02T22:48:31.720Z,20.5
2022-10-02T23:18:31.666Z,20.5
2022-10-02T23:48:31.721Z,20.5
